createdAt,value
2022-11-25T00:00:20.552Z,98176.41
2022-11-25T00:02:27.346Z,98172.91
2022-11-25T00:04:37.429Z,98180.56
2022-11-25T00:06:46.908Z,98176.97
2022-11-25T00:08:58.452Z,98176.00
2022-11-25T00:11:09.165Z,98169.97
2022-11-25T00:13:15.780Z,98171.13
2022-11-25T00:15:25.307Z,98185.81
2022-11-25T00:17:32.729Z,98185.25
2022-11-25T00:19:39.461Z,98179.31
2022-11-25T00:21:46.508Z,98185.47
2022-11-25T00:23:56.484Z,98190.06
2022-11-25T00:26:10.672Z,98189.38
2022-11-25T00:28:17.647Z,98187.91
2022-11-25T00:30:27.893Z,98197.69
2022-11-25T00:32:34.671Z,98201.09
2022-11-25T00:34:41.254Z,98202.00
2022-11-25T00:36:48.996Z,98205.31
2022-11-25T00:38:59.800Z,98202.63
2022-11-25T00:41:24.153Z,98197.44
2022-11-25T00:43:47.162Z,98190.69
2022-11-25T00:45:57.243Z,98209.63
2022-11-25T00:48:08.703Z,98212.19
2022-11-25T00:50:16.520Z,98203.66
2022-11-25T00:52:27.627Z,98208.69
2022-11-25T00:54:34.675Z,98213.66
2022-11-25T00:56:42.736Z,98205.97
2022-11-25T00:58:49.752Z,98215.13
2022-11-25T01:03:55.984Z,98215.84
2022-11-25T01:06:06.543Z,98219.91
2022-11-25T01:08:14.675Z,98218.31
2022-11-25T01:10:21.559Z,98213.03
2022-11-25T01:12:29.156Z,98218.91
2022-11-25T01:14:37.611Z,98219.00
2022-11-25T01:16:44.449Z,98212.94
2022-11-25T01:18:55.494Z,98208.72
2022-11-25T01:21:10.111Z,98228.34
2022-11-25T01:23:16.861Z,98210.16
2022-11-25T01:25:24.363Z,98215.47
2022-11-25T01:27:30.995Z,98213.66
2022-11-25T01:29:37.684Z,98217.97
2022-11-25T01:31:46.706Z,98217.06
2022-11-25T01:34:03.599Z,98216.22
2022-11-25T01:36:14.556Z,98211.81
2022-11-25T01:38:37.913Z,98210.25
2022-11-25T01:40:44.767Z,98209.50
2022-11-25T01:42:52.592Z,98213.03
2022-11-25T01:45:37.687Z,98200.94
2022-11-25T01:47:44.876Z,98206.81
2022-11-25T01:50:12.905Z,98206.03
2022-11-25T01:52:28.060Z,98206.72
2022-11-25T01:54:45.699Z,98203.13
2022-11-25T01:57:04.455Z,98205.56
2022-11-25T01:59:12.841Z,98207.38
2022-11-25T02:01:22.068Z,98210.78
2022-11-25T02:03:39.991Z,98205.72
2022-11-25T02:06:04.620Z,98217.69
2022-11-25T02:08:13.830Z,98212.47
2022-11-25T02:10:28.710Z,98211.97
2022-11-25T02:12:40.237Z,98218.91
2022-11-25T02:14:49.533Z,98219.69
2022-11-25T02:16:56.856Z,98215.47
2022-11-25T02:19:06.930Z,98212.69
2022-11-25T02:21:23.645Z,98221.28
2022-11-25T02:23:46.589Z,98210.06
2022-11-25T02:25:57.908Z,98223.06
2022-11-25T02:28:10.937Z,98220.47
2022-11-25T02:30:18.255Z,98219.50
2022-11-25T02:32:27.271Z,98219.50
2022-11-25T02:34:34.109Z,98224.69
2022-11-25T02:36:41.105Z,98223.19
2022-11-25T02:38:54.069Z,98224.09
2022-11-25T02:41:21.287Z,98219.78
2022-11-25T02:43:35.748Z,98218.22
2022-11-25T02:46:01.366Z,98219.00
2022-11-25T02:48:10.459Z,98206.38
2022-11-25T02:50:18.643Z,98218.22
2022-11-25T02:52:25.270Z,98226.81
2022-11-25T02:54:31.912Z,98224.88
2022-11-25T02:56:44.871Z,98231.69
2022-11-25T02:58:53.054Z,98230.66
2022-11-25T03:01:00.028Z,98229.88
2022-11-25T03:03:10.242Z,98226.34
2022-11-25T03:05:17.134Z,98226.25
2022-11-25T03:07:23.854Z,98235.75
2022-11-25T03:09:32.523Z,98227.97
2022-11-25T03:11:54.984Z,98230.50
2022-11-25T03:14:06.729Z,98231.44
2022-11-25T03:16:14.540Z,98231.56
2022-11-25T03:18:23.984Z,98234.91
2022-11-25T03:20:30.676Z,98228.16
2022-11-25T03:22:38.737Z,98212.78
2022-11-25T03:24:45.417Z,98230.72
2022-11-25T03:26:52.124Z,98224.69
2022-11-25T03:28:59.658Z,98232.31
2022-11-25T03:31:14.332Z,98234.97
2022-11-25T03:33:21.038Z,98234.84
2022-11-25T03:35:28.537Z,98245.03
2022-11-25T03:37:35.270Z,98247.56
2022-11-25T03:39:42.126Z,98250.09
2022-11-25T03:41:49.890Z,98253.88
2022-11-25T03:43:59.092Z,98251.28
2022-11-25T03:46:07.970Z,98253.94
2022-11-25T03:48:18.304Z,98259.13
2022-11-25T03:50:24.936Z,98250.41
2022-11-25T03:52:33.958Z,98252.13
2022-11-25T03:54:41.823Z,98253.84
2022-11-25T03:56:57.164Z,98250.22
2022-11-25T03:59:03.855Z,98248.50
2022-11-25T04:01:11.704Z,98250.19
2022-11-25T04:03:21.547Z,98220.66
2022-11-25T04:05:28.824Z,98251.56
2022-11-25T04:07:40.355Z,98253.03
2022-11-25T04:09:48.253Z,98256.47
2022-11-25T04:12:15.315Z,98261.56
2022-11-25T04:14:31.089Z,98258.03
2022-11-25T04:16:38.383Z,98246.06
2022-11-25T04:18:47.842Z,98260.59
2022-11-25T04:20:55.547Z,98259.63
2022-11-25T04:23:03.400Z,98264.19
2022-11-25T04:25:12.736Z,98260.84
2022-11-25T04:27:20.672Z,98263.22
2022-11-25T04:29:28.507Z,98268.31
2022-11-25T04:31:38.247Z,98263.34
2022-11-25T04:33:52.555Z,98255.81
2022-11-25T04:36:00.682Z,98268.44
2022-11-25T04:38:08.791Z,98262.34
2022-11-25T04:40:18.724Z,98268.31
2022-11-25T04:42:39.727Z,98270.81
2022-11-25T04:45:21.003Z,98271.38
2022-11-25T04:47:20.753Z,98281.78
2022-11-25T04:49:30.273Z,98283.56
2022-11-25T04:51:37.141Z,98281.22
2022-11-25T04:53:47.917Z,98276.00
2022-11-25T04:55:55.379Z,98277.00
2022-11-25T04:58:03.928Z,98287.28
2022-11-25T05:00:12.767Z,98281.38
2022-11-25T05:02:22.821Z,98286.44
2022-11-25T05:04:59.653Z,98281.31
2022-11-25T05:07:10.233Z,98287.19
2022-11-25T05:09:16.963Z,98295.66
2022-11-25T05:11:26.528Z,98298.91
2022-11-25T05:13:34.073Z,98291.03
2022-11-25T05:15:40.716Z,98296.94
2022-11-25T05:17:48.605Z,98297.59
2022-11-25T05:20:04.923Z,98301.81
2022-11-25T05:22:14.765Z,98301.66
2022-11-25T05:24:22.530Z,98310.28
2022-11-25T05:26:32.869Z,98304.94
2022-11-25T05:28:40.331Z,98305.88
2022-11-25T05:30:47.720Z,98313.66
2022-11-25T05:32:57.438Z,98302.31
2022-11-25T05:35:07.814Z,98317.72
2022-11-25T05:37:22.721Z,98310.81
2022-11-25T05:39:36.802Z,98316.09
2022-11-25T05:42:09.605Z,98320.31
2022-11-25T05:44:22.624Z,98316.72
2022-11-25T05:46:32.218Z,98321.78
2022-11-25T05:48:39.016Z,98321.09
2022-11-25T05:50:48.981Z,98327.22
2022-11-25T05:53:03.943Z,98325.75
2022-11-25T05:55:12.024Z,98323.09
2022-11-25T05:57:18.747Z,98328.34
2022-11-25T05:59:29.587Z,98322.25
2022-11-25T06:01:45.328Z,98326.50
2022-11-25T06:03:52.402Z,98332.53
2022-11-25T06:06:06.005Z,98341.13
2022-11-25T06:08:13.504Z,98334.94
2022-11-25T06:10:21.665Z,98332.06
2022-11-25T06:12:29.778Z,98339.78
2022-11-25T06:14:36.592Z,98330.91
2022-11-25T06:16:44.496Z,98334.47
2022-11-25T06:19:30.896Z,98336.94
2022-11-25T06:21:40.708Z,98336.84
2022-11-25T06:23:47.971Z,98343.94
2022-11-25T06:25:58.755Z,98339.44
2022-11-25T06:28:12.804Z,98354.34
2022-11-25T06:30:25.053Z,98350.84
2022-11-25T06:33:05.922Z,98349.16
2022-11-25T06:35:13.506Z,98350.06
2022-11-25T06:37:32.595Z,98350.75
2022-11-25T06:39:41.930Z,98341.00
2022-11-25T06:41:48.639Z,98354.03
2022-11-25T06:43:55.324Z,98344.38
2022-11-25T06:46:08.160Z,98346.13
2022-11-25T06:48:14.782Z,98353.25
2022-11-25T06:50:22.062Z,98350.53
2022-11-25T06:52:33.929Z,98348.75
2022-11-25T06:54:41.731Z,98352.94
2022-11-25T06:56:51.735Z,98357.97
2022-11-25T06:58:59.553Z,98359.59
2022-11-25T07:01:16.774Z,98359.69
2022-11-25T07:03:24.011Z,98361.34
2022-11-25T07:05:31.653Z,98367.22
2022-11-25T07:07:41.186Z,98356.59
2022-11-25T07:09:48.113Z,98367.44
2022-11-25T07:11:55.582Z,98361.19
2022-11-25T07:14:07.779Z,98334.06
2022-11-25T07:16:15.573Z,98360.91
2022-11-25T07:18:23.527Z,98371.16
2022-11-25T07:20:30.445Z,98374.31
2022-11-25T07:22:37.082Z,98369.84
2022-11-25T07:24:47.401Z,98375.78
2022-11-25T07:26:54.005Z,98373.22
2022-11-25T07:29:23.529Z,98386.97
2022-11-25T07:31:39.194Z,98376.44
2022-11-25T07:33:46.860Z,98381.53
2022-11-25T07:35:53.420Z,98384.00
2022-11-25T07:38:00.873Z,98384.69
2022-11-25T07:40:14.192Z,98386.31
2022-11-25T07:42:20.791Z,98384.38
2022-11-25T07:44:28.659Z,98391.88
2022-11-25T07:46:56.934Z,98384.81
2022-11-25T07:49:07.827Z,98390.69
2022-11-25T07:51:20.426Z,98391.34
2022-11-25T07:53:27.044Z,98386.03
2022-11-25T07:55:37.829Z,98390.56
2022-11-25T07:57:45.302Z,98394.75
2022-11-25T07:59:52.111Z,98404.06
2022-11-25T08:01:59.645Z,98393.41
2022-11-25T08:04:09.702Z,98399.19
2022-11-25T08:06:19.792Z,98404.28
2022-11-25T08:08:26.473Z,98405.13
2022-11-25T08:10:36.826Z,98402.44
2022-11-25T08:12:43.527Z,98409.25
2022-11-25T08:14:50.261Z,98416.13
2022-11-25T08:16:58.008Z,98409.38
2022-11-25T08:19:07.860Z,98405.69
2022-11-25T08:21:18.485Z,98407.41
2022-11-25T08:23:25.972Z,98409.13
2022-11-25T08:25:32.984Z,98409.88
2022-11-25T08:27:42.630Z,98405.44
2022-11-25T08:29:50.354Z,98414.06
2022-11-25T08:31:57.419Z,98412.19
2022-11-25T08:34:07.713Z,98413.59
2022-11-25T08:36:17.596Z,98419.34
2022-11-25T08:38:24.951Z,98417.31
2022-11-25T08:40:31.892Z,98424.00
2022-11-25T08:42:42.212Z,98424.84
2022-11-25T08:44:48.924Z,98423.09
2022-11-25T08:46:55.897Z,98433.47
2022-11-25T08:49:03.992Z,98428.13
2022-11-25T08:51:18.095Z,98430.72
2022-11-25T08:53:25.852Z,98420.25
2022-11-25T08:55:33.625Z,98429.56
2022-11-25T08:57:43.268Z,98435.34
2022-11-25T08:59:50.189Z,98433.38
2022-11-25T09:01:58.522Z,98433.16
2022-11-25T09:04:08.508Z,98437.22
2022-11-25T09:06:16.173Z,98435.09
2022-11-25T09:08:24.167Z,98443.41
2022-11-25T09:10:31.249Z,98443.59
2022-11-25T09:12:38.491Z,98436.66
2022-11-25T09:14:48.888Z,98436.53
2022-11-25T09:16:57.235Z,98433.78
2022-11-25T09:19:05.554Z,98435.22
2022-11-25T09:21:18.051Z,98439.09
2022-11-25T09:23:25.843Z,98436.13
2022-11-25T09:25:33.471Z,98446.44
2022-11-25T09:27:41.258Z,98443.59
2022-11-25T09:29:50.679Z,98443.31
2022-11-25T09:31:57.415Z,98436.25
2022-11-25T09:34:10.045Z,98431.66
2022-11-25T09:36:20.531Z,98430.59
2022-11-25T09:38:27.355Z,98435.66
2022-11-25T09:40:46.648Z,98430.59
2022-11-25T09:43:25.806Z,98437.66
2022-11-25T09:46:08.764Z,98438.72
2022-11-25T09:48:41.747Z,98440.13
2022-11-25T09:51:07.739Z,98435.66
2022-11-25T09:53:40.140Z,98431.06
2022-11-25T09:56:01.190Z,98433.38
2022-11-25T09:58:35.866Z,98435.72
2022-11-25T10:00:49.854Z,98431.38
2022-11-25T10:03:13.006Z,98432.94
2022-11-25T10:05:28.666Z,98425.03
2022-11-25T10:07:44.757Z,98431.34
2022-11-25T10:09:52.464Z,98438.97
2022-11-25T10:12:08.469Z,98431.09
2022-11-25T10:14:29.496Z,98434.88
2022-11-25T10:17:08.135Z,98433.88
2022-11-25T10:19:55.398Z,98418.34
2022-11-25T10:22:27.261Z,98429.91
2022-11-25T10:24:38.441Z,98430.53
2022-11-25T10:26:56.516Z,98427.56
2022-11-25T10:29:26.054Z,98407.03
2022-11-25T10:31:42.521Z,98435.88
2022-11-25T10:33:53.148Z,98431.38
2022-11-25T10:36:11.068Z,98435.59
2022-11-25T10:38:29.229Z,98439.59
2022-11-25T10:40:36.034Z,98433.66
2022-11-25T10:42:43.632Z,98433.75
2022-11-25T10:44:50.384Z,98440.66
2022-11-25T10:47:35.873Z,98437.91
2022-11-25T10:50:04.017Z,98439.50
2022-11-25T10:52:17.054Z,98431.66
2022-11-25T10:54:28.293Z,98435.03
2022-11-25T10:56:49.035Z,98400.56
2022-11-25T10:58:58.100Z,98431.66
2022-11-25T11:01:19.790Z,98435.56
2022-11-25T11:03:30.658Z,98436.91
2022-11-25T11:05:43.707Z,98430.06
2022-11-25T11:08:20.091Z,98439.44
2022-11-25T11:10:29.692Z,98443.59
2022-11-25T11:12:36.604Z,98438.13
2022-11-25T11:14:43.772Z,98440.38
2022-11-25T11:16:59.933Z,98445.84
2022-11-25T11:19:25.955Z,98440.19
2022-11-25T11:21:38.315Z,98441.91
2022-11-25T11:23:53.966Z,98439.66
2022-11-25T11:26:06.949Z,98445.66
2022-11-25T11:28:41.738Z,98444.03
2022-11-25T11:31:04.326Z,98443.28
2022-11-25T11:33:36.004Z,98442.38
2022-11-25T11:36:04.230Z,98443.75
2022-11-25T11:38:35.182Z,98448.75
2022-11-25T11:40:46.812Z,98446.81
2022-11-25T11:43:15.095Z,98448.28
2022-11-25T11:46:00.970Z,98434.97
2022-11-25T11:48:28.717Z,98437.19
2022-11-25T11:50:43.197Z,98430.03
2022-11-25T11:53:03.967Z,98443.78
2022-11-25T11:55:39.585Z,98453.75
2022-11-25T11:58:07.198Z,98447.56
2022-11-25T12:00:18.304Z,98457.84
2022-11-25T12:02:46.860Z,98452.66
2022-11-25T12:05:14.752Z,98444.50
2022-11-25T12:07:33.283Z,98455.44
2022-11-25T12:10:00.025Z,98455.59
2022-11-25T12:12:22.284Z,98452.38
2022-11-25T12:14:43.250Z,98452.06
2022-11-25T12:17:00.467Z,98451.38
2022-11-25T12:19:24.166Z,98423.72
2022-11-25T12:21:52.828Z,98444.03
2022-11-25T12:24:09.670Z,98441.19
2022-11-25T12:26:32.837Z,98444.91
2022-11-25T12:28:49.076Z,98442.91
2022-11-25T12:31:23.230Z,98439.91
2022-11-25T12:33:50.062Z,98441.28
2022-11-25T12:36:09.869Z,98448.50
2022-11-25T12:38:41.390Z,98457.34
2022-11-25T12:41:04.334Z,98457.75
2022-11-25T12:43:35.575Z,98449.38
2022-11-25T12:45:47.388Z,98461.13
2022-11-25T12:47:56.594Z,98459.63
2022-11-25T12:50:04.050Z,98458.63
2022-11-25T12:52:44.195Z,98457.66
2022-11-25T12:55:11.916Z,98458.50
2022-11-25T12:58:20.108Z,98464.63
2022-11-25T13:00:58.124Z,98462.19
2022-11-25T13:04:04.991Z,98469.38
2022-11-25T13:06:59.650Z,98459.72
2022-11-25T13:09:32.974Z,98468.63
2022-11-25T13:12:15.001Z,98466.94
2022-11-25T13:14:43.447Z,98470.19
2022-11-25T13:16:58.184Z,98462.88
2022-11-25T13:19:12.413Z,98455.75
2022-11-25T13:21:24.240Z,98463.44
2022-11-25T13:23:52.301Z,98463.25
2022-11-25T13:26:53.589Z,98462.06
2022-11-25T13:29:03.751Z,98465.44
2022-11-25T13:31:28.163Z,98468.22
2022-11-25T13:34:29.057Z,98470.06
2022-11-25T13:36:52.036Z,98478.53
2022-11-25T13:39:09.936Z,98481.22
2022-11-25T13:41:40.392Z,98480.53
2022-11-25T13:44:03.785Z,98479.13
2022-11-25T13:46:10.802Z,98496.81
2022-11-25T13:48:23.939Z,98483.13
2022-11-25T13:50:55.354Z,98484.25
2022-11-25T13:53:07.575Z,98489.53
2022-11-25T13:55:35.040Z,98490.47
2022-11-25T13:57:48.415Z,98494.00
2022-11-25T14:00:01.007Z,98497.69
2022-11-25T14:02:45.181Z,98482.69
2022-11-25T14:05:07.897Z,98495.63
2022-11-25T14:07:35.528Z,98498.97
2022-11-25T14:10:14.001Z,98493.88
2022-11-25T14:12:52.228Z,98490.47
2022-11-25T14:16:44.046Z,98501.72
2022-11-25T14:19:52.476Z,98494.41
2022-11-25T14:22:35.986Z,98493.22
2022-11-25T14:24:49.836Z,98479.28
2022-11-25T14:27:00.715Z,98493.47
2022-11-25T14:29:23.648Z,98496.47
2022-11-25T14:31:44.645Z,98492.69
2022-11-25T14:34:00.105Z,98487.94
2022-11-25T14:36:17.574Z,98490.47
2022-11-25T14:38:40.145Z,98499.09
2022-11-25T14:40:55.712Z,98498.25
2022-11-25T14:43:10.979Z,98498.25
2022-11-25T14:45:29.719Z,98499.94
2022-11-25T14:47:39.229Z,98490.16
2022-11-25T14:50:11.817Z,98496.09
2022-11-25T14:52:27.042Z,98501.34
2022-11-25T14:54:36.673Z,98505.59
2022-11-25T14:56:44.310Z,98503.72
2022-11-25T14:58:56.123Z,98470.00
2022-11-25T15:01:08.385Z,98509.81
2022-11-25T15:03:23.433Z,98508.09
2022-11-25T15:05:38.657Z,98511.63
2022-11-25T15:07:47.158Z,98508.97
2022-11-25T15:09:56.722Z,98510.72
2022-11-25T15:12:09.019Z,98502.03
2022-11-25T15:14:29.165Z,98512.44
2022-11-25T15:16:43.694Z,98514.59
2022-11-25T15:18:55.204Z,98513.63
2022-11-25T15:21:09.399Z,98510.25
2022-11-25T15:23:32.144Z,98491.47
2022-11-25T15:25:53.504Z,98515.19
2022-11-25T15:28:00.064Z,98511.63
2022-11-25T15:30:24.023Z,98513.34
2022-11-25T15:32:38.152Z,98515.06
2022-11-25T15:34:47.357Z,98510.63
2022-11-25T15:36:54.951Z,98515.81
2022-11-25T15:39:19.450Z,98512.34
2022-11-25T15:41:39.683Z,98520.09
2022-11-25T15:43:53.222Z,98521.06
2022-11-25T15:46:06.382Z,98520.97
2022-11-25T15:48:24.381Z,98525.19
2022-11-25T15:50:35.357Z,98525.97
2022-11-25T15:52:49.923Z,98527.66
2022-11-25T15:55:06.595Z,98527.56
2022-11-25T15:57:29.914Z,98525.75
2022-11-25T15:59:50.584Z,98529.22
2022-11-25T16:01:57.692Z,98518.34
2022-11-25T16:04:24.221Z,98511.63
2022-11-25T16:06:33.248Z,98525.19
2022-11-25T16:08:42.186Z,98535.66
2022-11-25T16:11:03.490Z,98531.19
2022-11-25T16:13:42.691Z,98519.97
2022-11-25T16:15:57.284Z,98516.34
2022-11-25T16:18:32.481Z,98524.91
2022-11-25T16:20:32.476Z,98424.34
2022-11-25T16:22:40.843Z,98539.22
2022-11-25T16:25:01.861Z,98531.53
2022-11-25T16:27:25.599Z,98528.19
2022-11-25T16:29:41.085Z,98537.81
2022-11-25T16:31:48.251Z,98539.75
2022-11-25T16:33:59.566Z,98538.97
2022-11-25T16:36:09.489Z,98539.13
2022-11-25T16:38:16.351Z,98531.50
2022-11-25T16:40:24.729Z,98540.13
2022-11-25T16:42:37.251Z,98540.13
2022-11-25T16:44:52.471Z,98540.13
2022-11-25T16:47:01.123Z,98538.44
2022-11-25T16:49:16.786Z,98548.19
2022-11-25T16:51:26.911Z,98548.28
2022-11-25T16:53:34.410Z,98550.91
2022-11-25T16:55:45.691Z,98542.97
2022-11-25T16:57:54.540Z,98549.91
2022-11-25T17:00:08.974Z,98543.81
2022-11-25T17:02:21.859Z,98548.19
2022-11-25T17:04:28.619Z,98542.03
2022-11-25T17:06:37.460Z,98552.59
2022-11-25T17:08:44.819Z,98550.00
2022-11-25T17:10:52.964Z,98549.03
2022-11-25T17:13:01.011Z,98563.06
2022-11-25T17:15:19.980Z,98557.97
2022-11-25T17:17:30.377Z,98572.81
2022-11-25T17:19:38.308Z,98562.66
2022-11-25T17:21:45.522Z,98561.13
2022-11-25T17:23:55.170Z,98573.63
2022-11-25T17:26:03.682Z,98570.19
2022-11-25T17:28:19.335Z,98568.38
2022-11-25T17:30:32.645Z,98577.84
2022-11-25T17:32:40.176Z,98570.72
2022-11-25T17:34:47.007Z,98568.03
2022-11-25T17:36:53.598Z,98577.50
2022-11-25T17:39:01.379Z,98574.88
2022-11-25T17:41:16.149Z,98575.81
2022-11-25T17:43:24.407Z,98575.09
2022-11-25T17:45:34.970Z,98580.47
2022-11-25T17:47:41.757Z,98583.19
2022-11-25T17:49:49.704Z,98593.66
2022-11-25T17:51:57.256Z,98588.56
2022-11-25T17:54:03.919Z,98591.25
2022-11-25T17:56:27.152Z,98593.28
2022-11-25T17:58:34.631Z,98590.81
2022-11-25T18:00:46.739Z,98595.28
2022-11-25T18:02:53.910Z,98593.66
2022-11-25T18:05:03.291Z,98599.09
2022-11-25T18:07:11.015Z,98587.75
2022-11-25T18:09:17.654Z,98587.56
2022-11-25T18:11:25.259Z,98587.44
2022-11-25T18:13:42.656Z,98580.53
2022-11-25T18:15:52.353Z,98585.75
2022-11-25T18:18:06.070Z,98585.81
2022-11-25T18:20:22.671Z,98559.53
2022-11-25T18:22:30.816Z,98592.78
2022-11-25T18:24:38.612Z,98590.19
2022-11-25T18:26:50.377Z,98600.50
2022-11-25T18:28:59.904Z,98594.50
2022-11-25T18:31:15.909Z,98591.13
2022-11-25T18:33:23.242Z,98595.41
2022-11-25T18:35:36.790Z,98601.59
2022-11-25T18:37:44.382Z,98600.72
2022-11-25T18:39:52.437Z,98612.03
2022-11-25T18:42:00.160Z,98598.97
2022-11-25T18:44:25.831Z,98460.94
2022-11-25T18:46:41.228Z,98604.84
2022-11-25T18:48:47.819Z,98610.97
2022-11-25T18:50:58.065Z,98620.66
2022-11-25T18:53:06.547Z,98609.34
2022-11-25T18:55:15.638Z,98612.81
2022-11-25T18:57:23.756Z,98618.19
2022-11-25T18:59:37.475Z,98620.03
2022-11-25T19:01:49.998Z,98617.56
2022-11-25T19:03:58.037Z,98618.66
2022-11-25T19:06:06.578Z,98613.66
2022-11-25T19:08:13.220Z,98622.16
2022-11-25T19:10:22.191Z,98619.66
2022-11-25T19:12:29.694Z,98626.88
2022-11-25T19:14:42.601Z,98624.38
2022-11-25T19:16:53.101Z,98622.19
2022-11-25T19:18:59.767Z,98624.19
2022-11-25T19:21:07.946Z,98614.84
2022-11-25T19:23:23.163Z,98623.72
2022-11-25T19:25:29.952Z,98630.78
2022-11-25T19:27:43.691Z,98631.84
2022-11-25T19:29:51.563Z,98635.56
2022-11-25T19:32:08.565Z,98634.84
2022-11-25T19:34:30.090Z,98641.19
2022-11-25T19:36:37.957Z,98634.28
2022-11-25T19:38:44.561Z,98640.53
2022-11-25T19:40:51.687Z,98643.13
2022-11-25T19:42:59.523Z,98637.09
2022-11-25T19:45:08.884Z,98646.56
2022-11-25T19:47:25.205Z,98650.06
2022-11-25T19:49:32.686Z,98651.78
2022-11-25T19:51:39.503Z,98639.00
2022-11-25T19:53:46.118Z,98656.31
2022-11-25T19:55:53.552Z,98651.91
2022-11-25T19:58:00.653Z,98661.69
2022-11-25T20:00:11.275Z,98662.47
2022-11-25T20:02:27.055Z,98664.28
2022-11-25T20:04:33.774Z,98659.06
2022-11-25T20:06:40.531Z,98653.78
2022-11-25T20:08:49.963Z,98661.38
2022-11-25T20:10:58.563Z,98659.47
2022-11-25T20:13:10.432Z,98667.13
2022-11-25T20:15:18.736Z,98673.13
2022-11-25T20:17:33.943Z,98665.22
2022-11-25T20:19:41.152Z,98668.75
2022-11-25T20:21:49.953Z,98679.34
2022-11-25T20:23:58.019Z,98682.84
2022-11-25T20:26:06.577Z,98670.97
2022-11-25T20:28:22.167Z,98683.31
2022-11-25T20:30:31.966Z,98680.78
2022-11-25T20:32:41.805Z,98677.66
2022-11-25T20:34:50.012Z,98682.81
2022-11-25T20:36:56.879Z,98688.03
2022-11-25T20:39:06.645Z,98685.56
2022-11-25T20:41:16.523Z,98689.09
2022-11-25T20:43:33.389Z,98686.72
2022-11-25T20:45:40.391Z,98684.25
2022-11-25T20:47:53.135Z,98684.84
2022-11-25T20:49:59.853Z,98680.22
2022-11-25T20:52:09.474Z,98686.97
2022-11-25T20:54:17.990Z,98691.22
2022-11-25T20:56:29.868Z,98659.69
2022-11-25T20:58:37.248Z,98694.78
2022-11-25T21:00:44.966Z,98688.94
2022-11-25T21:02:55.923Z,98693.16
2022-11-25T21:05:03.563Z,98699.16
2022-11-25T21:07:18.144Z,98693.06
2022-11-25T21:09:34.748Z,98701.59
2022-11-25T21:11:41.504Z,98702.44
2022-11-25T21:13:50.021Z,98692.06
2022-11-25T21:15:57.802Z,98693.03
2022-11-25T21:18:07.742Z,98687.81
2022-11-25T21:20:19.511Z,98695.63
2022-11-25T21:22:26.507Z,98693.84
2022-11-25T21:24:37.958Z,98699.78
2022-11-25T21:26:45.839Z,98690.81
2022-11-25T21:28:56.128Z,98692.41
2022-11-25T21:31:08.397Z,98693.06
2022-11-25T21:33:22.207Z,98696.31
2022-11-25T21:35:35.672Z,98689.13
2022-11-25T21:37:44.731Z,98689.00
2022-11-25T21:39:52.538Z,98687.16
2022-11-25T21:42:06.256Z,98693.97
2022-11-25T21:44:27.291Z,98692.00
2022-11-25T21:46:34.758Z,98696.09
2022-11-25T21:48:44.559Z,98696.94
2022-11-25T21:50:51.895Z,98696.81
2022-11-25T21:53:01.148Z,98710.66
2022-11-25T21:55:11.968Z,98701.91
2022-11-25T21:57:23.196Z,98707.03
2022-11-25T21:59:34.019Z,98705.19
2022-11-25T22:01:41.076Z,98710.41
2022-11-25T22:03:50.485Z,98711.25
2022-11-25T22:05:58.927Z,98710.28
2022-11-25T22:08:07.806Z,98708.56
2022-11-25T22:10:17.601Z,98725.97
2022-11-25T22:12:36.756Z,98733.75
2022-11-25T22:14:47.923Z,98737.97
2022-11-25T22:16:55.398Z,98740.47
2022-11-25T22:19:06.710Z,98736.16
2022-11-25T22:21:16.953Z,98729.09
2022-11-25T22:23:25.405Z,98731.72
2022-11-25T22:25:36.113Z,98743.09
2022-11-25T22:27:42.921Z,98744.94
2022-11-25T22:29:50.349Z,98742.22
2022-11-25T22:31:58.043Z,98744.06
2022-11-25T22:34:21.408Z,98750.06
2022-11-25T22:36:39.956Z,98748.44
2022-11-25T22:38:47.389Z,98744.94
2022-11-25T22:40:59.513Z,98758.91
2022-11-25T22:43:07.186Z,98773.81
2022-11-25T22:45:27.374Z,98739.06
2022-11-25T22:47:42.650Z,98754.22
2022-11-25T22:49:55.127Z,98759.00
2022-11-25T22:52:03.845Z,98762.06
2022-11-25T22:54:15.211Z,98762.44
2022-11-25T22:56:23.300Z,98761.91
2022-11-25T22:58:31.865Z,98763.06
2022-11-25T23:00:43.210Z,98764.47
2022-11-25T23:02:52.512Z,98764.00
2022-11-25T23:05:03.489Z,98769.75
2022-11-25T23:07:15.241Z,98769.16
2022-11-25T23:09:23.161Z,98771.16
2022-11-25T23:11:32.023Z,98767.06
2022-11-25T23:13:41.517Z,98769.81
2022-11-25T23:15:53.415Z,98775.09
2022-11-25T23:18:05.996Z,98739.13
2022-11-25T23:20:23.855Z,98765.38
2022-11-25T23:22:30.423Z,98772.03
2022-11-25T23:24:38.276Z,98773.56
2022-11-25T23:26:45.680Z,98770.84
2022-11-25T23:28:52.787Z,98770.84
2022-11-25T23:31:04.123Z,98771.69
2022-11-25T23:33:25.586Z,98768.97
2022-11-25T23:35:40.680Z,98753.84
2022-11-25T23:37:57.796Z,98770.28
2022-11-25T23:40:06.077Z,98767.06
2022-11-25T23:42:20.946Z,98762.88
2022-11-25T23:44:31.846Z,98771.94
2022-11-25T23:46:40.406Z,98773.22
2022-11-25T23:48:58.899Z,98778.56
2022-11-25T23:51:11.334Z,98776.06
2022-11-25T23:53:28.244Z,98771.81
2022-11-25T23:55:40.458Z,98771.88
2022-11-25T23:57:51.294Z,98771.19
2022-11-25T23:59:58.209Z,98772.19
